sensor_id;sensor_type;location;lat;lon;timestamp;pressure;altitude;pressure_sealevel;temperature;humidity
8140;BME280;4111;50.972;7.072;2023-01-28T00:00:50;102269.41;;;4.12;84.99
8140;BME280;4111;50.972;7.072;2023-01-28T00:03:17;102265.91;;;4.04;84.83
8140;BME280;4111;50.972;7.072;2023-01-28T00:05:44;102277.13;;;3.91;84.75
8140;BME280;4111;50.972;7.072;2023-01-28T00:08:10;102267.03;;;3.85;85.02
8140;BME280;4111;50.972;7.072;2023-01-28T00:10:39;102262.66;;;3.84;84.79
8140;BME280;4111;50.972;7.072;2023-01-28T00:13:06;102264.66;;;3.73;85.26
8140;BME280;4111;50.972;7.072;2023-01-28T00:15:33;102257.28;;;3.75;85.44
8140;BME280;4111;50.972;7.072;2023-01-28T00:17:59;102258.13;;;3.76;85.61
8140;BME280;4111;50.972;7.072;2023-01-28T00:20:26;102264.66;;;3.73;85.43
8140;BME280;4111;50.972;7.072;2023-01-28T00:22:52;102255.94;;;3.71;85.68
8140;BME280;4111;50.972;7.072;2023-01-28T00:25:19;102256.59;;;3.73;85.62
8140;BME280;4111;50.972;7.072;2023-01-28T00:27:46;102257.59;;;3.72;85.55
8140;BME280;4111;50.972;7.072;2023-01-28T00:30:12;102254.75;;;3.74;85.75
8140;BME280;4111;50.972;7.072;2023-01-28T00:32:39;102262.66;;;3.75;85.41
8140;BME280;4111;50.972;7.072;2023-01-28T00:35:08;102250.88;;;3.68;85.57
8140;BME280;4111;50.972;7.072;2023-01-28T00:37:35;102252.22;;;3.64;85.31
8140;BME280;4111;50.972;7.072;2023-01-28T00:40:03;102256.06;;;3.62;85.52
8140;BME280;4111;50.972;7.072;2023-01-28T00:42:29;102261.88;;;3.49;85.61
8140;BME280;4111;50.972;7.072;2023-01-28T00:44:56;102266.94;;;3.52;85.61
8140;BME280;4111;50.972;7.072;2023-01-28T00:47:22;102265.06;;;3.44;85.79
8140;BME280;4111;50.972;7.072;2023-01-28T00:49:48;102263.19;;;3.36;86.17
8140;BME280;4111;50.972;7.072;2023-01-28T00:52:15;102265.50;;;3.31;86.12
8140;BME280;4111;50.972;7.072;2023-01-28T00:54:41;102266.50;;;3.30;86.26
8140;BME280;4111;50.972;7.072;2023-01-28T00:57:07;102269.50;;;3.27;86.33
8140;BME280;4111;50.972;7.072;2023-01-28T00:59:34;102274.88;;;3.27;86.38
8140;BME280;4111;50.972;7.072;2023-01-28T01:02:00;102268.84;;;3.25;86.22
8140;BME280;4111;50.972;7.072;2023-01-28T01:04:38;102266.78;;;3.19;86.51
8140;BME280;4111;50.972;7.072;2023-01-28T01:07:05;102259.59;;;3.28;86.56
8140;BME280;4111;50.972;7.072;2023-01-28T01:09:32;102259.94;;;3.25;86.77
8140;BME280;4111;50.972;7.072;2023-01-28T01:11:58;102253.38;;;3.19;86.62
8140;BME280;4111;50.972;7.072;2023-01-28T01:14:25;102248.91;;;3.02;86.77
8140;BME280;4111;50.972;7.072;2023-01-28T01:16:51;102249.78;;;3.02;86.67
8140;BME280;4111;50.972;7.072;2023-01-28T01:19:18;102243.88;;;2.98;86.87
8140;BME280;4111;50.972;7.072;2023-01-28T01:21:44;102247.88;;;2.94;86.94
8140;BME280;4111;50.972;7.072;2023-01-28T01:24:15;102249.88;;;2.92;87.07
8140;BME280;4111;50.972;7.072;2023-01-28T01:26:42;102253.38;;;2.85;87.40
8140;BME280;4111;50.972;7.072;2023-01-28T01:29:08;102261.19;;;2.78;87.60
8140;BME280;4111;50.972;7.072;2023-01-28T01:31:35;102268.88;;;2.73;87.83
8140;BME280;4111;50.972;7.072;2023-01-28T01:34:01;102267.31;;;2.70;87.78
8140;BME280;4111;50.972;7.072;2023-01-28T01:36:28;102267.84;;;2.74;87.90
8140;BME280;4111;50.972;7.072;2023-01-28T01:38:54;102269.03;;;2.71;88.44
8140;BME280;4111;50.972;7.072;2023-01-28T01:41:26;102262.94;;;2.61;88.28
8140;BME280;4111;50.972;7.072;2023-01-28T01:43:58;102262.78;;;2.63;88.27
8140;BME280;4111;50.972;7.072;2023-01-28T01:46:49;102261.47;;;2.67;88.50
8140;BME280;4111;50.972;7.072;2023-01-28T01:49:25;102253.66;;;2.55;88.71
8140;BME280;4111;50.972;7.072;2023-01-28T01:52:14;102256.81;;;2.51;88.57
8140;BME280;4111;50.972;7.072;2023-01-28T01:54:43;102263.00;;;2.51;88.95
8140;BME280;4111;50.972;7.072;2023-01-28T01:57:15;102258.34;;;2.53;88.49
8140;BME280;4111;50.972;7.072;2023-01-28T01:59:42;102272.56;;;2.54;88.84
8140;BME280;4111;50.972;7.072;2023-01-28T02:02:10;102273.50;;;2.45;88.47
8140;BME280;4111;50.972;7.072;2023-01-28T02:04:42;102268.69;;;2.48;88.84
8140;BME280;4111;50.972;7.072;2023-01-28T02:07:12;102277.72;;;2.47;88.99
8140;BME280;4111;50.972;7.072;2023-01-28T02:09:40;102265.31;;;2.46;88.80
8140;BME280;4111;50.972;7.072;2023-01-28T02:12:12;102263.56;;;2.37;89.16
8140;BME280;4111;50.972;7.072;2023-01-28T02:14:46;102269.84;;;2.28;89.06
8140;BME280;4111;50.972;7.072;2023-01-28T02:17:14;102266.78;;;2.23;89.25
8140;BME280;4111;50.972;7.072;2023-01-28T02:19:57;102270.16;;;2.25;89.62
8140;BME280;4111;50.972;7.072;2023-01-28T02:31:03;102265.03;;;2.13;89.63
8140;BME280;4111;50.972;7.072;2023-01-28T02:33:43;102272.63;;;2.18;89.60
8140;BME280;4111;50.972;7.072;2023-01-28T02:36:20;102273.78;;;2.15;90.00
8140;BME280;4111;50.972;7.072;2023-01-28T02:38:50;102283.88;;;2.22;90.10
8140;BME280;4111;50.972;7.072;2023-01-28T02:41:28;102281.13;;;2.13;89.74
8140;BME280;4111;50.972;7.072;2023-01-28T02:43:56;102287.38;;;2.04;89.81
8140;BME280;4111;50.972;7.072;2023-01-28T02:49:30;102284.25;;;2.09;90.39
8140;BME280;4111;50.972;7.072;2023-01-28T02:55:05;102299.25;;;2.02;90.32
8140;BME280;4111;50.972;7.072;2023-01-28T02:57:44;102301.25;;;2.00;90.45
8140;BME280;4111;50.972;7.072;2023-01-28T03:00:16;102309.72;;;1.95;90.37
8140;BME280;4111;50.972;7.072;2023-01-28T03:02:52;102319.75;;;1.93;90.59
8140;BME280;4111;50.972;7.072;2023-01-28T03:05:38;102311.72;;;1.93;90.50
8140;BME280;4111;50.972;7.072;2023-01-28T03:08:08;102320.75;;;1.92;90.50
8140;BME280;4111;50.972;7.072;2023-01-28T03:10:55;102319.06;;;1.91;90.56
8140;BME280;4111;50.972;7.072;2023-01-28T03:13:42;102312.31;;;1.87;90.95
8140;BME280;4111;50.972;7.072;2023-01-28T03:16:31;102316.69;;;1.88;91.04
8140;BME280;4111;50.972;7.072;2023-01-28T03:19:17;102316.56;;;1.79;90.75
8140;BME280;4111;50.972;7.072;2023-01-28T03:22:02;102319.94;;;1.82;90.91
8140;BME280;4111;50.972;7.072;2023-01-28T03:24:50;102315.44;;;1.82;90.77
8140;BME280;4111;50.972;7.072;2023-01-28T03:30:31;102315.72;;;1.79;91.10
8140;BME280;4111;50.972;7.072;2023-01-28T03:33:21;102308.44;;;1.71;91.25
8140;BME280;4111;50.972;7.072;2023-01-28T03:36:08;102315.50;;;1.72;91.29
8140;BME280;4111;50.972;7.072;2023-01-28T03:38:53;102319.47;;;1.68;91.32
8140;BME280;4111;50.972;7.072;2023-01-28T03:41:21;102315.25;;;1.66;91.47
8140;BME280;4111;50.972;7.072;2023-01-28T03:43:49;102314.13;;;1.68;91.64
8140;BME280;4111;50.972;7.072;2023-01-28T03:46:16;102319.47;;;1.68;91.70
8140;BME280;4111;50.972;7.072;2023-01-28T03:48:44;102321.97;;;1.70;91.64
8140;BME280;4111;50.972;7.072;2023-01-28T03:51:11;102316.38;;;1.63;91.26
8140;BME280;4111;50.972;7.072;2023-01-28T03:53:37;102324.03;;;1.58;91.34
8140;BME280;4111;50.972;7.072;2023-01-28T03:56:06;102325.72;;;1.59;91.76
8140;BME280;4111;50.972;7.072;2023-01-28T03:58:32;102327.41;;;1.60;91.97
8140;BME280;4111;50.972;7.072;2023-01-28T04:01:18;102327.69;;;1.57;92.01
8140;BME280;4111;50.972;7.072;2023-01-28T04:03:45;102332.34;;;1.55;92.40
8140;BME280;4111;50.972;7.072;2023-01-28T04:06:11;102330.09;;;1.60;92.47
8140;BME280;4111;50.972;7.072;2023-01-28T04:08:38;102335.72;;;1.57;92.34
8140;BME280;4111;50.972;7.072;2023-01-28T04:11:04;102338.69;;;1.54;92.11
8140;BME280;4111;50.972;7.072;2023-01-28T04:13:46;102344.59;;;1.57;92.19
8140;BME280;4111;50.972;7.072;2023-01-28T04:16:14;102339.38;;;1.56;92.25
8140;BME280;4111;50.972;7.072;2023-01-28T04:18:42;102337.25;;;1.59;92.09
8140;BME280;4111;50.972;7.072;2023-01-28T04:21:09;102344.34;;;1.51;92.04
8140;BME280;4111;50.972;7.072;2023-01-28T04:23:35;102346.44;;;1.57;92.37
8140;BME280;4111;50.972;7.072;2023-01-28T04:26:02;102350.25;;;1.54;91.91
8140;BME280;4111;50.972;7.072;2023-01-28T04:28:29;102352.94;;;1.54;92.26
8140;BME280;4111;50.972;7.072;2023-01-28T04:30:56;102364.25;;;1.48;91.89
8140;BME280;4111;50.972;7.072;2023-01-28T04:33:22;102366.03;;;1.48;92.04
8140;BME280;4111;50.972;7.072;2023-01-28T04:35:49;102364.38;;;1.47;91.99
8140;BME280;4111;50.972;7.072;2023-01-28T04:38:15;102355.34;;;1.48;91.97
8140;BME280;4111;50.972;7.072;2023-01-28T04:40:42;102360.69;;;1.48;92.40
8140;BME280;4111;50.972;7.072;2023-01-28T04:43:08;102363.94;;;1.51;92.32
8140;BME280;4111;50.972;7.072;2023-01-28T04:45:35;102364.75;;;1.52;92.23
8140;BME280;4111;50.972;7.072;2023-01-28T04:48:01;102367.06;;;1.47;92.47
8140;BME280;4111;50.972;7.072;2023-01-28T04:50:27;102371.16;;;1.41;92.21
8140;BME280;4111;50.972;7.072;2023-01-28T04:52:54;102374.66;;;1.42;92.34
8140;BME280;4111;50.972;7.072;2023-01-28T04:55:20;102374.38;;;1.45;91.97
8140;BME280;4111;50.972;7.072;2023-01-28T04:57:47;102378.75;;;1.46;92.42
8140;BME280;4111;50.972;7.072;2023-01-28T05:00:14;102377.63;;;1.48;92.38
8140;BME280;4111;50.972;7.072;2023-01-28T05:02:40;102379.72;;;1.54;92.11
8140;BME280;4111;50.972;7.072;2023-01-28T05:05:07;102382.38;;;1.54;92.09
8140;BME280;4111;50.972;7.072;2023-01-28T05:07:34;102377.59;;;1.58;91.85
8140;BME280;4111;50.972;7.072;2023-01-28T05:10:01;102376.13;;;1.64;92.38
8140;BME280;4111;50.972;7.072;2023-01-28T05:12:27;102377.84;;;1.65;92.03
8140;BME280;4111;50.972;7.072;2023-01-28T05:14:55;102378.97;;;1.62;91.99
8140;BME280;4111;50.972;7.072;2023-01-28T05:17:22;102380.97;;;1.60;91.90
8140;BME280;4111;50.972;7.072;2023-01-28T05:19:48;102382.34;;;1.64;92.27
8140;BME280;4111;50.972;7.072;2023-01-28T05:22:15;102378.97;;;1.62;92.22
8140;BME280;4111;50.972;7.072;2023-01-28T05:24:41;102375.72;;;1.68;92.01
8140;BME280;4111;50.972;7.072;2023-01-28T05:27:08;102378.38;;;1.68;91.94
8140;BME280;4111;50.972;7.072;2023-01-28T05:29:34;102375.28;;;1.63;91.88
8140;BME280;4111;50.972;7.072;2023-01-28T05:32:01;102365.69;;;1.70;91.91
8140;BME280;4111;50.972;7.072;2023-01-28T05:34:27;102372.72;;;1.71;92.24
8140;BME280;4111;50.972;7.072;2023-01-28T05:36:54;102374.81;;;1.77;92.07
8140;BME280;4111;50.972;7.072;2023-01-28T05:39:20;102382.41;;;1.82;91.42
8140;BME280;4111;50.972;7.072;2023-01-28T05:41:46;102371.28;;;1.77;91.46
8140;BME280;4111;50.972;7.072;2023-01-28T05:44:13;102378.94;;;1.72;91.45
8140;BME280;4111;50.972;7.072;2023-01-28T05:46:39;102382.25;;;1.84;91.37
8140;BME280;4111;50.972;7.072;2023-01-28T05:49:10;102381.72;;;1.80;91.13
8140;BME280;4111;50.972;7.072;2023-01-28T05:51:39;102380.28;;;1.86;90.97
8140;BME280;4111;50.972;7.072;2023-01-28T05:54:06;102388.00;;;1.89;90.75
8140;BME280;4111;50.972;7.072;2023-01-28T05:56:33;102390.41;;;1.92;90.52
8140;BME280;4111;50.972;7.072;2023-01-28T05:59:03;102395.75;;;1.92;91.02
8140;BME280;4111;50.972;7.072;2023-01-28T06:01:30;102391.88;;;2.04;91.29
8140;BME280;4111;50.972;7.072;2023-01-28T06:03:57;102398.34;;;2.11;91.12
8140;BME280;4111;50.972;7.072;2023-01-28T06:06:24;102392.81;;;2.13;90.83
8140;BME280;4111;50.972;7.072;2023-01-28T06:08:50;102402.97;;;2.09;90.96
8140;BME280;4111;50.972;7.072;2023-01-28T06:11:17;102398.91;;;2.05;90.56
8140;BME280;4111;50.972;7.072;2023-01-28T06:13:45;102399.13;;;1.94;90.33
8140;BME280;4111;50.972;7.072;2023-01-28T06:16:11;102402.47;;;2.06;90.52
8140;BME280;4111;50.972;7.072;2023-01-28T06:18:38;102407.28;;;2.02;90.73
8140;BME280;4111;50.972;7.072;2023-01-28T06:21:07;102405.56;;;2.01;90.42
8140;BME280;4111;50.972;7.072;2023-01-28T06:23:33;102400.63;;;2.06;90.03
8140;BME280;4111;50.972;7.072;2023-01-28T06:25:59;102401.31;;;2.08;90.20
8140;BME280;4111;50.972;7.072;2023-01-28T06:28:26;102412.03;;;2.08;90.11
8140;BME280;4111;50.972;7.072;2023-01-28T06:30:52;102411.75;;;2.11;90.24
8140;BME280;4111;50.972;7.072;2023-01-28T06:33:20;102416.94;;;2.13;90.17
8140;BME280;4111;50.972;7.072;2023-01-28T06:35:46;102420.28;;;2.15;90.32
8140;BME280;4111;50.972;7.072;2023-01-28T06:38:13;102424.38;;;2.19;90.20
8140;BME280;4111;50.972;7.072;2023-01-28T06:40:39;102416.59;;;2.26;90.25
8140;BME280;4111;50.972;7.072;2023-01-28T06:43:06;102413.31;;;2.32;90.44
8140;BME280;4111;50.972;7.072;2023-01-28T06:45:32;102408.84;;;2.23;89.73
8140;BME280;4111;50.972;7.072;2023-01-28T06:47:59;102416.97;;;2.31;89.70
8140;BME280;4111;50.972;7.072;2023-01-28T06:50:25;102411.84;;;2.37;89.89
8140;BME280;4111;50.972;7.072;2023-01-28T06:52:52;102414.06;;;2.42;89.46
8140;BME280;4111;50.972;7.072;2023-01-28T06:55:18;102407.94;;;2.32;88.99
8140;BME280;4111;50.972;7.072;2023-01-28T06:57:45;102413.22;;;2.24;88.16
8140;BME280;4111;50.972;7.072;2023-01-28T07:00:12;102415.56;;;2.27;88.41
8140;BME280;4111;50.972;7.072;2023-01-28T07:02:41;102407.16;;;2.22;88.29
8140;BME280;4111;50.972;7.072;2023-01-28T07:05:08;102421.84;;;2.17;88.32
8140;BME280;4111;50.972;7.072;2023-01-28T07:07:34;102419.31;;;2.16;87.88
8140;BME280;4111;50.972;7.072;2023-01-28T07:10:02;102425.56;;;2.07;87.96
8140;BME280;4111;50.972;7.072;2023-01-28T07:12:28;102423.91;;;2.06;88.25
8140;BME280;4111;50.972;7.072;2023-01-28T07:14:55;102416.59;;;1.98;87.90
8140;BME280;4111;50.972;7.072;2023-01-28T07:17:21;102421.41;;;1.94;87.80
8140;BME280;4111;50.972;7.072;2023-01-28T07:19:48;102434.25;;;1.91;87.69
8140;BME280;4111;50.972;7.072;2023-01-28T07:22:14;102428.69;;;2.02;87.49
8140;BME280;4111;50.972;7.072;2023-01-28T07:24:41;102431.25;;;2.04;86.96
8140;BME280;4111;50.972;7.072;2023-01-28T07:27:07;102433.00;;;2.13;87.08
8140;BME280;4111;50.972;7.072;2023-01-28T07:29:33;102428.59;;;2.22;87.21
8140;BME280;4111;50.972;7.072;2023-01-28T07:32:00;102429.50;;;2.12;86.46
8140;BME280;4111;50.972;7.072;2023-01-28T07:34:26;102426.53;;;2.15;86.71
8140;BME280;4111;50.972;7.072;2023-01-28T07:36:53;102432.25;;;2.21;86.25
8140;BME280;4111;50.972;7.072;2023-01-28T07:39:22;102430.72;;;2.18;86.06
8140;BME280;4111;50.972;7.072;2023-01-28T07:41:49;102435.53;;;2.14;85.57
8140;BME280;4111;50.972;7.072;2023-01-28T07:44:15;102441.50;;;2.08;85.56
8140;BME280;4111;50.972;7.072;2023-01-28T07:46:42;102422.97;;;2.15;85.00
8140;BME280;4111;50.972;7.072;2023-01-28T07:49:08;102417.28;;;2.28;84.96
8140;BME280;4111;50.972;7.072;2023-01-28T07:51:34;102425.41;;;2.36;84.64
8140;BME280;4111;50.972;7.072;2023-01-28T07:54:01;102429.19;;;2.43;84.54
8140;BME280;4111;50.972;7.072;2023-01-28T07:56:29;102436.13;;;2.36;83.47
8140;BME280;4111;50.972;7.072;2023-01-28T07:58:56;102436.13;;;2.36;83.87
8140;BME280;4111;50.972;7.072;2023-01-28T08:01:23;102431.69;;;2.45;84.02
8140;BME280;4111;50.972;7.072;2023-01-28T08:03:49;102432.00;;;2.42;82.97
8140;BME280;4111;50.972;7.072;2023-01-28T08:06:15;102438.91;;;2.44;82.75
8140;BME280;4111;50.972;7.072;2023-01-28T08:08:42;102435.94;;;2.47;81.94
8140;BME280;4111;50.972;7.072;2023-01-28T08:11:09;102445.22;;;2.53;82.56
8140;BME280;4111;50.972;7.072;2023-01-28T08:13:36;102445.44;;;2.60;82.31
8140;BME280;4111;50.972;7.072;2023-01-28T08:16:03;102454.09;;;2.53;81.94
8140;BME280;4111;50.972;7.072;2023-01-28T08:18:30;102454.38;;;2.50;81.52
8140;BME280;4111;50.972;7.072;2023-01-28T08:20:57;102466.88;;;2.60;81.92
8140;BME280;4111;50.972;7.072;2023-01-28T08:23:25;102461.59;;;2.68;81.58
8140;BME280;4111;50.972;7.072;2023-01-28T08:25:52;102460.78;;;2.67;81.70
8140;BME280;4111;50.972;7.072;2023-01-28T08:28:20;102475.22;;;2.56;81.33
8140;BME280;4111;50.972;7.072;2023-01-28T08:30:47;102468.56;;;2.61;81.32
8140;BME280;4111;50.972;7.072;2023-01-28T08:33:15;102468.66;;;2.69;82.08
8140;BME280;4111;50.972;7.072;2023-01-28T08:35:42;102467.50;;;2.26;81.28
8140;BME280;4111;50.972;7.072;2023-01-28T08:38:10;102470.41;;;1.67;82.65
8140;BME280;4111;50.972;7.072;2023-01-28T08:40:38;102481.19;;;0.79;81.96
8140;BME280;4111;50.972;7.072;2023-01-28T08:43:04;102485.06;;;0.46;83.44
8140;BME280;4111;50.972;7.072;2023-01-28T08:45:31;102477.91;;;0.56;86.58
8140;BME280;4111;50.972;7.072;2023-01-28T08:47:59;102479.50;;;0.88;88.37
8140;BME280;4111;50.972;7.072;2023-01-28T08:50:29;102489.50;;;1.15;88.08
8140;BME280;4111;50.972;7.072;2023-01-28T08:52:59;102482.44;;;1.34;87.32
8140;BME280;4111;50.972;7.072;2023-01-28T08:55:27;102490.91;;;1.39;86.64
8140;BME280;4111;50.972;7.072;2023-01-28T08:57:54;102497.09;;;1.39;86.48
8140;BME280;4111;50.972;7.072;2023-01-28T09:00:23;102493.59;;;1.29;85.92
8140;BME280;4111;50.972;7.072;2023-01-28T09:02:51;102491.63;;;1.22;86.00
8140;BME280;4111;50.972;7.072;2023-01-28T09:05:18;102496.00;;;1.03;86.56
8140;BME280;4111;50.972;7.072;2023-01-28T09:07:46;102496.81;;;0.94;86.33
8140;BME280;4111;50.972;7.072;2023-01-28T09:10:12;102495.00;;;0.94;87.42
8140;BME280;4111;50.972;7.072;2023-01-28T09:12:40;102507.50;;;0.84;87.36
8140;BME280;4111;50.972;7.072;2023-01-28T09:15:08;102511.59;;;0.88;87.71
8140;BME280;4111;50.972;7.072;2023-01-28T09:17:34;102514.28;;;0.88;88.28
8140;BME280;4111;50.972;7.072;2023-01-28T09:20:01;102503.88;;;0.85;88.19
8140;BME280;4111;50.972;7.072;2023-01-28T09:22:27;102514.84;;;0.82;88.36
8140;BME280;4111;50.972;7.072;2023-01-28T09:24:53;102530.88;;;0.82;88.29
8140;BME280;4111;50.972;7.072;2023-01-28T09:27:20;102542.84;;;0.78;87.48
8140;BME280;4111;50.972;7.072;2023-01-28T09:29:46;102545.50;;;0.78;87.43
8140;BME280;4111;50.972;7.072;2023-01-28T09:32:13;102547.47;;;0.76;87.48
8140;BME280;4111;50.972;7.072;2023-01-28T09:34:39;102548.31;;;0.76;87.67
8140;BME280;4111;50.972;7.072;2023-01-28T09:37:06;102547.78;;;0.92;88.07
8140;BME280;4111;50.972;7.072;2023-01-28T09:39:32;102542.72;;;1.28;87.97
8140;BME280;4111;50.972;7.072;2023-01-28T09:47:38;102551.25;;;2.00;85.11
8140;BME280;4111;50.972;7.072;2023-01-28T09:50:13;102560.09;;;2.10;83.96
8140;BME280;4111;50.972;7.072;2023-01-28T09:52:41;102558.53;;;2.17;83.08
8140;BME280;4111;50.972;7.072;2023-01-28T09:55:32;102560.09;;;2.10;81.51
8140;BME280;4111;50.972;7.072;2023-01-28T09:58:00;102563.22;;;2.15;81.02
8140;BME280;4111;50.972;7.072;2023-01-28T10:00:52;102564.84;;;2.26;80.51
8140;BME280;4111;50.972;7.072;2023-01-28T10:03:46;102565.72;;;2.17;79.56
8140;BME280;4111;50.972;7.072;2023-01-28T10:09:40;102562.09;;;2.08;78.70
8140;BME280;4111;50.972;7.072;2023-01-28T10:13:06;102560.03;;;2.30;78.84
8140;BME280;4111;50.972;7.072;2023-01-28T10:15:38;102549.13;;;2.41;79.13
8140;BME280;4111;50.972;7.072;2023-01-28T10:18:11;102553.81;;;2.39;78.22
8140;BME280;4111;50.972;7.072;2023-01-28T10:20:56;102555.28;;;2.51;77.88
8140;BME280;4111;50.972;7.072;2023-01-28T10:24:16;102559.66;;;2.52;77.61
8140;BME280;4111;50.972;7.072;2023-01-28T10:26:38;102560.19;;;2.56;77.33
8140;BME280;4111;50.972;7.072;2023-01-28T10:29:15;102558.91;;;2.60;77.46
8140;BME280;4111;50.972;7.072;2023-01-28T10:31:49;102563.28;;;2.61;76.87
8140;BME280;4111;50.972;7.072;2023-01-28T10:34:18;102563.34;;;2.51;76.45
8140;BME280;4111;50.972;7.072;2023-01-28T10:36:46;102557.44;;;2.48;76.79
8140;BME280;4111;50.972;7.072;2023-01-28T10:39:14;102565.00;;;2.52;76.36
8140;BME280;4111;50.972;7.072;2023-01-28T10:41:42;102564.41;;;2.58;76.31
8140;BME280;4111;50.972;7.072;2023-01-28T10:44:35;102564.69;;;2.65;76.45
8140;BME280;4111;50.972;7.072;2023-01-28T10:47:16;102562.88;;;2.84;76.86
8140;BME280;4111;50.972;7.072;2023-01-28T10:49:53;102560.88;;;2.86;76.74
8140;BME280;4111;50.972;7.072;2023-01-28T10:52:21;102556.44;;;2.76;75.92
8140;BME280;4111;50.972;7.072;2023-01-28T10:54:58;102553.28;;;2.81;76.08
8140;BME280;4111;50.972;7.072;2023-01-28T10:57:24;102546.78;;;2.84;76.07
8140;BME280;4111;50.972;7.072;2023-01-28T10:59:51;102550.94;;;2.96;76.27
8140;BME280;4111;50.972;7.072;2023-01-28T11:02:32;102556.63;;;2.93;75.88
8140;BME280;4111;50.972;7.072;2023-01-28T11:07:36;102552.81;;;2.68;75.28
8140;BME280;4111;50.972;7.072;2023-01-28T11:12:56;102551.00;;;2.58;75.31
8140;BME280;4111;50.972;7.072;2023-01-28T11:15:22;102555.09;;;2.63;75.59
8140;BME280;4111;50.972;7.072;2023-01-28T11:18:04;102560.34;;;2.54;75.47
8140;BME280;4111;50.972;7.072;2023-01-28T11:20:40;102552.25;;;2.64;75.16
8140;BME280;4111;50.972;7.072;2023-01-28T11:23:27;102560.16;;;2.66;75.03
8140;BME280;4111;50.972;7.072;2023-01-28T11:28:30;102544.84;;;2.76;74.87
8140;BME280;4111;50.972;7.072;2023-01-28T11:30:59;102541.66;;;2.90;75.42
8140;BME280;4111;50.972;7.072;2023-01-28T11:33:37;102560.66;;;2.79;75.20
8140;BME280;4111;50.972;7.072;2023-01-28T11:36:13;102548.53;;;2.75;74.78
8140;BME280;4111;50.972;7.072;2023-01-28T11:38:52;102551.50;;;2.72;74.79
8140;BME280;4111;50.972;7.072;2023-01-28T11:41:28;102552.56;;;2.61;75.18
8140;BME280;4111;50.972;7.072;2023-01-28T11:43:57;102563.91;;;2.55;75.21
8140;BME280;4111;50.972;7.072;2023-01-28T11:46:48;102570.34;;;2.62;74.96
8140;BME280;4111;50.972;7.072;2023-01-28T11:55:35;102572.25;;;2.42;74.40
8140;BME280;4111;50.972;7.072;2023-01-28T11:58:15;102564.31;;;2.50;75.14
8140;BME280;4111;50.972;7.072;2023-01-28T12:05:52;102553.16;;;2.55;73.88
8140;BME280;4111;50.972;7.072;2023-01-28T12:08:25;102557.94;;;2.61;74.38
8140;BME280;4111;50.972;7.072;2023-01-28T12:14:05;102548.63;;;2.55;73.76
8140;BME280;4111;50.972;7.072;2023-01-28T12:16:58;102541.63;;;2.45;73.26
8140;BME280;4111;50.972;7.072;2023-01-28T12:25:18;102549.53;;;2.46;73.09
8140;BME280;4111;50.972;7.072;2023-01-28T12:30:46;102530.78;;;2.64;73.28
8140;BME280;4111;50.972;7.072;2023-01-28T12:41:27;102547.50;;;2.58;73.10
8140;BME280;4111;50.972;7.072;2023-01-28T12:44:02;102545.91;;;2.65;72.93
8140;BME280;4111;50.972;7.072;2023-01-28T12:46:43;102545.13;;;2.55;72.52
8140;BME280;4111;50.972;7.072;2023-01-28T12:49:13;102543.88;;;2.49;72.30
8140;BME280;4111;50.972;7.072;2023-01-28T12:51:57;102538.69;;;2.38;71.72
8140;BME280;4111;50.972;7.072;2023-01-28T12:57:07;102531.25;;;2.60;71.91
8140;BME280;4111;50.972;7.072;2023-01-28T12:59:48;102527.97;;;2.66;72.17
8140;BME280;4111;50.972;7.072;2023-01-28T13:02:24;102524.16;;;2.86;72.36
8140;BME280;4111;50.972;7.072;2023-01-28T13:05:07;102514.59;;;3.02;71.80
8140;BME280;4111;50.972;7.072;2023-01-28T13:07:58;102516.97;;;3.05;71.44
8140;BME280;4111;50.972;7.072;2023-01-28T13:10:37;102513.06;;;2.81;70.77
8140;BME280;4111;50.972;7.072;2023-01-28T13:13:05;102504.53;;;2.68;70.03
8140;BME280;4111;50.972;7.072;2023-01-28T13:15:35;102492.91;;;2.77;69.96
8140;BME280;4111;50.972;7.072;2023-01-28T13:18:04;102494.34;;;2.89;70.29
8140;BME280;4111;50.972;7.072;2023-01-28T13:20:47;102485.31;;;2.90;69.80
8140;BME280;4111;50.972;7.072;2023-01-28T13:23:38;102480.09;;;2.89;69.15
8140;BME280;4111;50.972;7.072;2023-01-28T13:26:27;102481.25;;;3.22;69.83
8140;BME280;4111;50.972;7.072;2023-01-28T13:29:07;102471.78;;;3.36;69.55
8140;BME280;4111;50.972;7.072;2023-01-28T13:31:43;102458.63;;;3.51;69.07
8140;BME280;4111;50.972;7.072;2023-01-28T13:34:34;102446.97;;;3.68;68.86
8140;BME280;4111;50.972;7.072;2023-01-28T13:42:32;102421.81;;;4.04;68.02
8140;BME280;4111;50.972;7.072;2023-01-28T13:45:28;102404.88;;;4.11;67.61
8140;BME280;4111;50.972;7.072;2023-01-28T13:48:22;102416.00;;;4.25;68.04
8140;BME280;4111;50.972;7.072;2023-01-28T13:51:02;102428.09;;;4.21;67.32
8140;BME280;4111;50.972;7.072;2023-01-28T13:53:36;102450.72;;;4.61;67.59
8140;BME280;4111;50.972;7.072;2023-01-28T13:56:16;102464.22;;;4.85;67.36
8140;BME280;4111;50.972;7.072;2023-01-28T14:07:28;102467.84;;;4.60;65.73
8140;BME280;4111;50.972;7.072;2023-01-28T14:16:11;102476.34;;;5.39;65.53
8140;BME280;4111;50.972;7.072;2023-01-28T14:18:43;102479.97;;;6.03;64.96
8140;BME280;4111;50.972;7.072;2023-01-28T14:21:13;102501.13;;;6.23;63.77
8140;BME280;4111;50.972;7.072;2023-01-28T14:23:51;102506.25;;;5.93;63.17
8140;BME280;4111;50.972;7.072;2023-01-28T14:31:57;102511.31;;;4.81;63.41
8140;BME280;4111;50.972;7.072;2023-01-28T14:34:31;102503.38;;;4.80;63.99
8140;BME280;4111;50.972;7.072;2023-01-28T14:37:03;102506.59;;;4.91;64.37
8140;BME280;4111;50.972;7.072;2023-01-28T14:39:36;102513.72;;;5.09;63.99
8140;BME280;4111;50.972;7.072;2023-01-28T14:42:13;102500.19;;;5.91;64.49
8140;BME280;4111;50.972;7.072;2023-01-28T14:44:43;102492.97;;;6.39;63.08
8140;BME280;4111;50.972;7.072;2023-01-28T14:47:34;102490.13;;;6.72;61.68
8140;BME280;4111;50.972;7.072;2023-01-28T14:50:29;102488.53;;;6.54;61.36
8140;BME280;4111;50.972;7.072;2023-01-28T14:58:40;102487.78;;;5.65;61.58
8140;BME280;4111;50.972;7.072;2023-01-28T15:01:41;102491.50;;;5.48;61.70
8140;BME280;4111;50.972;7.072;2023-01-28T15:04:29;102481.91;;;5.21;62.15
8140;BME280;4111;50.972;7.072;2023-01-28T15:07:01;102481.06;;;5.12;62.01
8140;BME280;4111;50.972;7.072;2023-01-28T15:09:27;102479.03;;;5.47;62.42
8140;BME280;4111;50.972;7.072;2023-01-28T15:11:55;102472.69;;;6.12;62.90
8140;BME280;4111;50.972;7.072;2023-01-28T15:14:28;102462.50;;;6.30;61.77
8140;BME280;4111;50.972;7.072;2023-01-28T15:16:56;102457.41;;;5.96;61.46
8140;BME280;4111;50.972;7.072;2023-01-28T15:19:30;102456.13;;;5.67;61.35
8140;BME280;4111;50.972;7.072;2023-01-28T15:21:59;102449.59;;;5.21;61.82
8140;BME280;4111;50.972;7.072;2023-01-28T15:24:27;102455.31;;;4.93;62.36